Maria Dos Anxos — ECCL — position and weather

sailwx.info

Track history (hours):
 
Tides and Currents Weather Stations Pressure Air Temp Water Temp Dewpoint Dewpoint Depression Visibility Wind Speed Wind Dir Waves Ship Positions

Maria Dos Anxos

Last reported at 2018-Feb-14 20:51 UTC. Time now 2018-Feb-23 10:50 UTC.
Position N 43°33' W 005°42'.
Warning: this ship's position is 8 days out of date.

Length 30 m; draft 4 m.

Type: Fishing. MMSI: 224081150.

Date/timePositionNaut miles runAvg speedWind from/ knotsBaromVisibWave heightAir tempDewpointWater temp
2018-Feb-14 20:51N 43°33' W 005°42'0 0.0
2018-Feb-14 20:30N 43°33' W 005°42'0 0.1
2018-Feb-14 19:47N 43°33' W 005°42'4 0.3
2018-Feb-14 03:44N 43°37' W 005°41'2 7.1
2018-Feb-14 03:30N 43°36' W 005°41'3 5.3
2018-Feb-14 02:59N 43°33' W 005°42'0 0.0
2018-Feb-14 02:28N 43°33' W 005°42'0 0.0
2018-Feb-14 02:00N 43°33' W 005°42'0 0.0
2018-Feb-14 01:26N 43°33' W 005°42'0 0.0
2018-Feb-14 00:59N 43°33' W 005°42'0 0.0
2018-Feb-14 00:27N 43°33' W 005°42'0 0.0
2018-Feb-13 23:57N 43°33' W 005°42'0 0.0
2018-Feb-13 23:30N 43°33' W 005°42'0 0.0
2018-Feb-13 23:00N 43°33' W 005°42'0 0.0
2018-Feb-13 22:30N 43°33' W 005°42'0 0.0
2018-Feb-13 20:39N 43°33' W 005°42'0 0.0
2018-Feb-13 20:28N 43°33' W 005°42'1 1.3
2018-Feb-13 19:59N 43°34' W 005°41'12 0.7
2018-Feb-13 03:38N 43°37' W 005°25'1 7.9
2018-Feb-13 03:27N 43°37' W 005°27'4 8.2
2018-Feb-13 03:00N 43°36' W 005°32'4 8.5
2018-Feb-13 02:29N 43°34' W 005°38'3 6.4
2018-Feb-13 01:59N 43°33' W 005°42'0 0.0
2018-Feb-13 01:30N 43°33' W 005°42'0 0.0
2018-Feb-13 01:00N 43°33' W 005°42'0 0.0
2018-Feb-13 00:30N 43°33' W 005°42'0 0.0
2018-Feb-12 23:56N 43°33' W 005°42'0 0.0
2018-Feb-12 23:29N 43°33' W 005°42'0 0.0
2018-Feb-12 22:49N 43°33' W 005°42'0 0.0
2018-Feb-12 22:29N 43°33' W 005°42'0 0.0
2018-Feb-12 21:15N 43°33' W 005°42'0 0.0
2018-Feb-12 20:46N 43°33' W 005°42'0 0.2
2018-Feb-12 20:16N 43°33' W 005°42'0 0.0
2018-Feb-12 19:51N 43°33' W 005°42'  
2018-Feb-08 01:30N 43°33' W 005°42'0 0.0
2018-Feb-08 01:00N 43°33' W 005°42'0 0.0
2018-Feb-08 00:29N 43°33' W 005°42'0 0.0
2018-Feb-08 00:00N 43°33' W 005°42'0 0.0
2018-Feb-07 23:30N 43°33' W 005°42'0 0.0
2018-Feb-07 22:58N 43°33' W 005°42'9 0.5
2018-Feb-07 05:03N 43°41' W 005°50'4 9.7
2018-Feb-07 04:38N 43°38' W 005°45'2 9.7
2018-Feb-07 04:29N 43°37' W 005°44'4 8.7
2018-Feb-07 04:00N 43°34' W 005°40'1 2.5
2018-Feb-07 03:30N 43°33' W 005°42'0 0.0
2018-Feb-07 03:00N 43°33' W 005°42'0 0.0
2018-Feb-07 02:30N 43°33' W 005°42'0 0.0
2018-Feb-07 02:00N 43°33' W 005°42'0 0.0
2018-Feb-07 01:30N 43°33' W 005°42'0 0.0
2018-Feb-07 01:00N 43°33' W 005°42'0 0.0
2018-Feb-07 00:29N 43°33' W 005°42'0 0.0
2018-Feb-06 23:59N 43°33' W 005°42'0 0.0
2018-Feb-06 23:28N 43°33' W 005°42'0 0.0
2018-Feb-06 21:31N 43°33' W 005°42'0 0.1
2018-Feb-06 21:30N 43°33' W 005°42'0 0.0
2018-Feb-06 20:42N 43°33' W 005°42'0 0.0
2018-Feb-06 20:30N 43°33' W 005°42'0 0.0
2018-Feb-06 19:57N 43°33' W 005°42'0 0.1
2018-Feb-06 19:22N 43°33' W 005°42'0 0.3
2018-Feb-06 19:00N 43°33' W 005°42'12 0.8
2018-Feb-06 03:38N 43°37' W 005°26'1 7.9
2018-Feb-06 03:29N 43°36' W 005°28'4 7.8
2018-Feb-06 03:00N 43°35' W 005°33'4 8.0
2018-Feb-06 02:30N 43°34' W 005°38'3 5.6
2018-Feb-06 02:00N 43°33' W 005°42'0 0.0
2018-Feb-06 01:30N 43°33' W 005°42'0 0.0
2018-Feb-06 01:00N 43°33' W 005°42'0 0.0
2018-Feb-06 00:27N 43°33' W 005°42'0 0.0
2018-Feb-06 00:00N 43°33' W 005°42'0 0.0
2018-Feb-05 23:30N 43°33' W 005°42'0 0.0
2018-Feb-05 22:49N 43°33' W 005°42'0 0.0
2018-Feb-05 20:15N 43°33' W 005°42'0 0.1
2018-Feb-05 20:00N 43°33' W 005°42'12 0.8
2018-Feb-05 03:54N 43°37' W 005°25'2 6.4
2018-Feb-05 03:30N 43°36' W 005°29'3 6.4
2018-Feb-05 03:00N 43°35' W 005°33'3 6.7
2018-Feb-05 02:29N 43°34' W 005°38'3 6.3
2018-Feb-05 02:00N 43°33' W 005°42'  
Track history (hours):
 
Tides and Currents Weather Stations Pressure Air Temp Water Temp Dewpoint Dewpoint Depression Visibility Wind Speed Wind Dir Waves Ship Positions

Maria Dos Anxos

Last reported at 2018-Feb-14 20:51 UTC. Time now 2018-Feb-23 10:50 UTC.
Position N 43°33' W 005°42'.
Warning: this ship's position is 8 days out of date.

Length 30 m; draft 4 m.

Type: Fishing. MMSI: 224081150.

Date/timePositionNaut miles runAvg speedWind from/ knotsBaromVisibWave heightAir tempDewpointWater temp
2018-Feb-14 20:51N 43°33' W 005°42'0 0.0
2018-Feb-14 20:30N 43°33' W 005°42'0 0.1
2018-Feb-14 19:47N 43°33' W 005°42'4 0.3
2018-Feb-14 03:44N 43°37' W 005°41'2 7.1
2018-Feb-14 03:30N 43°36' W 005°41'3 5.3
2018-Feb-14 02:59N 43°33' W 005°42'0 0.0
2018-Feb-14 02:28N 43°33' W 005°42'0 0.0
2018-Feb-14 02:00N 43°33' W 005°42'0 0.0
2018-Feb-14 01:26N 43°33' W 005°42'0 0.0
2018-Feb-14 00:59N 43°33' W 005°42'0 0.0
2018-Feb-14 00:27N 43°33' W 005°42'0 0.0
2018-Feb-13 23:57N 43°33' W 005°42'0 0.0
2018-Feb-13 23:30N 43°33' W 005°42'0 0.0
2018-Feb-13 23:00N 43°33' W 005°42'0 0.0
2018-Feb-13 22:30N 43°33' W 005°42'0 0.0
2018-Feb-13 20:39N 43°33' W 005°42'0 0.0
2018-Feb-13 20:28N 43°33' W 005°42'1 1.3
2018-Feb-13 19:59N 43°34' W 005°41'12 0.7
2018-Feb-13 03:38N 43°37' W 005°25'1 7.9
2018-Feb-13 03:27N 43°37' W 005°27'4 8.2
2018-Feb-13 03:00N 43°36' W 005°32'4 8.5
2018-Feb-13 02:29N 43°34' W 005°38'3 6.4
2018-Feb-13 01:59N 43°33' W 005°42'0 0.0
2018-Feb-13 01:30N 43°33' W 005°42'0 0.0
2018-Feb-13 01:00N 43°33' W 005°42'0 0.0
2018-Feb-13 00:30N 43°33' W 005°42'0 0.0
2018-Feb-12 23:56N 43°33' W 005°42'0 0.0
2018-Feb-12 23:29N 43°33' W 005°42'0 0.0
2018-Feb-12 22:49N 43°33' W 005°42'0 0.0
2018-Feb-12 22:29N 43°33' W 005°42'0 0.0
2018-Feb-12 21:15N 43°33' W 005°42'0 0.0
2018-Feb-12 20:46N 43°33' W 005°42'0 0.2
2018-Feb-12 20:16N 43°33' W 005°42'0 0.0
2018-Feb-12 19:51N 43°33' W 005°42'  
2018-Feb-08 01:30N 43°33' W 005°42'0 0.0
2018-Feb-08 01:00N 43°33' W 005°42'0 0.0
2018-Feb-08 00:29N 43°33' W 005°42'0 0.0
2018-Feb-08 00:00N 43°33' W 005°42'0 0.0
2018-Feb-07 23:30N 43°33' W 005°42'0 0.0
2018-Feb-07 22:58N 43°33' W 005°42'9 0.5
2018-Feb-07 05:03N 43°41' W 005°50'4 9.7
2018-Feb-07 04:38N 43°38' W 005°45'2 9.7
2018-Feb-07 04:29N 43°37' W 005°44'4 8.7
2018-Feb-07 04:00N 43°34' W 005°40'1 2.5
2018-Feb-07 03:30N 43°33' W 005°42'0 0.0
2018-Feb-07 03:00N 43°33' W 005°42'0 0.0
2018-Feb-07 02:30N 43°33' W 005°42'0 0.0
2018-Feb-07 02:00N 43°33' W 005°42'0 0.0
2018-Feb-07 01:30N 43°33' W 005°42'0 0.0
2018-Feb-07 01:00N 43°33' W 005°42'0 0.0
2018-Feb-07 00:29N 43°33' W 005°42'0 0.0
2018-Feb-06 23:59N 43°33' W 005°42'0 0.0
2018-Feb-06 23:28N 43°33' W 005°42'0 0.0
2018-Feb-06 21:31N 43°33' W 005°42'0 0.1
2018-Feb-06 21:30N 43°33' W 005°42'0 0.0
2018-Feb-06 20:42N 43°33' W 005°42'0 0.0
2018-Feb-06 20:30N 43°33' W 005°42'0 0.0
2018-Feb-06 19:57N 43°33' W 005°42'0 0.1
2018-Feb-06 19:22N 43°33' W 005°42'0 0.3
2018-Feb-06 19:00N 43°33' W 005°42'12 0.8
2018-Feb-06 03:38N 43°37' W 005°26'1 7.9
2018-Feb-06 03:29N 43°36' W 005°28'4 7.8
2018-Feb-06 03:00N 43°35' W 005°33'4 8.0
2018-Feb-06 02:30N 43°34' W 005°38'3 5.6
2018-Feb-06 02:00N 43°33' W 005°42'0 0.0
2018-Feb-06 01:30N 43°33' W 005°42'0 0.0
2018-Feb-06 01:00N 43°33' W 005°42'0 0.0
2018-Feb-06 00:27N 43°33' W 005°42'0 0.0
2018-Feb-06 00:00N 43°33' W 005°42'0 0.0
2018-Feb-05 23:30N 43°33' W 005°42'0 0.0
2018-Feb-05 22:49N 43°33' W 005°42'0 0.0
2018-Feb-05 20:15N 43°33' W 005°42'0 0.1
2018-Feb-05 20:00N 43°33' W 005°42'12 0.8
2018-Feb-05 03:54N 43°37' W 005°25'2 6.4
2018-Feb-05 03:30N 43°36' W 005°29'3 6.4
2018-Feb-05 03:00N 43°35' W 005°33'3 6.7
2018-Feb-05 02:29N 43°34' W 005°38'3 6.3
2018-Feb-05 02:00N 43°33' W 005°42'  

Dump ship's entire track history